Time;durP1;ratioP1;P1;durP2;ratioP2;P2;SDS_P1;SDS_P2;PMS_P1;PMS_P2;Temp;Humidity;BMP_temperature;BMP_pressure;BME280_temperature;BME280_humidity;BME280_pressure;Samples;Min_cycle;Max_cycle;Signal;HPM_P1;HPM_P2
2023/12/19 00:01:30;;;;;;;5.95;3.20;;;11.00;6.50;;;;;;7404545;19;19906;-72
2023/12/19 00:03:56;;;;;;;6.05;3.10;;;11.10;5.80;;;;;;7407310;19;19978;-72
2023/12/19 00:06:21;;;;;;;5.72;3.13;;;11.10;5.50;;;;;;7403968;19;19978;-72
2023/12/19 00:08:47;;;;;;;5.15;2.72;;;11.10;5.20;;;;;;7404290;19;20569;-73
2023/12/19 00:11:13;;;;;;;6.35;2.83;;;11.10;5.40;;;;;;7403360;19;19918;-74
2023/12/19 00:13:39;;;;;;;5.00;2.80;;;11.00;5.90;;;;;;7406356;19;20335;-72
2023/12/19 00:16:05;;;;;;;5.78;3.35;;;11.00;5.00;;;;;;7405418;19;19919;-73
2023/12/19 00:18:30;;;;;;;6.43;2.83;;;11.20;4.50;;;;;;7405219;19;19926;-73
2023/12/19 00:20:56;;;;;;;5.60;3.20;;;11.50;4.30;;;;;;7404504;19;19926;-74
2023/12/19 00:23:22;;;;;;;7.07;3.40;;;11.50;4.10;;;;;;7383489;19;19931;-75
2023/12/19 00:25:48;;;;;;;7.15;3.65;;;11.40;4.50;;;;;;7404276;19;19918;-72
2023/12/19 00:28:14;;;;;;;5.45;2.60;;;11.20;4.90;;;;;;7401562;19;19922;-73
2023/12/19 00:30:40;;;;;;;6.00;3.10;;;11.40;3.60;;;;;;7402546;19;19918;-72
2023/12/19 00:33:06;;;;;;;5.30;2.90;;;11.60;3.50;;;;;;7402607;19;20357;-73
2023/12/19 00:35:34;;;;;;;5.68;3.28;;;11.60;4.00;;;;;;7403564;19;19957;-72
2023/12/19 00:38:03;;;;;;;5.72;3.13;;;11.70;3.40;;;;;;7398695;19;19929;-72
2023/12/19 00:40:28;;;;;;;6.55;2.60;;;11.80;3.30;;;;;;7396931;19;19938;-73
2023/12/19 00:42:54;;;;;;;4.95;2.70;;;12.00;1.90;;;;;;7402052;19;19915;-72
2023/12/19 00:45:20;;;;;;;4.82;2.85;;;11.90;2.20;;;;;;7398716;19;19976;-72
2023/12/19 00:47:46;;;;;;;5.30;2.72;;;11.90;2.40;;;;;;7402902;19;19911;-72
2023/12/19 00:50:15;;;;;;;6.47;3.15;;;11.70;2.60;;;;;;7400887;19;19914;-72
2023/12/19 00:52:41;;;;;;;5.22;2.85;;;11.90;3.30;;;;;;7402623;19;19982;-72
2023/12/19 00:55:07;;;;;;;6.38;2.67;;;12.30;1.10;;;;;;7402239;19;19923;-74
2023/12/19 00:57:33;;;;;;;6.35;3.05;;;12.10;1.20;;;;;;7402576;19;19918;-73
2023/12/19 00:59:59;;;;;;;5.55;2.78;;;12.10;1.40;;;;;;7402756;19;19922;-73
2023/12/19 01:02:27;;;;;;;5.35;3.10;;;12.10;1.50;;;;;;7400805;19;19919;-72
2023/12/19 01:04:56;;;;;;;5.93;2.70;;;12.20;1.80;;;;;;7403285;19;19922;-72
2023/12/19 01:07:22;;;;;;;5.32;2.95;;;12.50;1.30;;;;;;7399997;19;19955;-72
2023/12/19 01:09:48;;;;;;;7.93;2.78;;;12.20;2.30;;;;;;7403654;19;20271;-73
2023/12/19 01:12:14;;;;;;;7.82;3.63;;;11.90;3.50;;;;;;7401912;19;19922;-72
2023/12/19 01:14:39;;;;;;;7.47;3.90;;;11.60;5.20;;;;;;7400686;19;19970;-72
2023/12/19 01:17:05;;;;;;;9.60;4.68;;;11.40;6.20;;;;;;7402175;19;19946;-72
2023/12/19 01:19:31;;;;;;;10.65;6.15;;;11.20;8.60;;;;;;7403261;19;19914;-73
2023/12/19 01:21:57;;;;;;;9.63;4.80;;;11.10;11.00;;;;;;7399937;19;19930;-72
2023/12/19 01:24:22;;;;;;;10.40;5.32;;;11.00;11.10;;;;;;7401132;19;19940;-73
2023/12/19 01:26:49;;;;;;;8.23;4.25;;;10.80;10.70;;;;;;7404224;19;20337;-72
2023/12/19 01:29:15;;;;;;;;;;;10.80;10.30;;;;;;7405312;19;19947;-72
2023/12/19 01:31:41;;;;;;;9.85;4.78;;;10.70;10.70;;;;;;7399981;19;19928;-72
2023/12/19 01:34:07;;;;;;;8.32;4.25;;;10.50;11.10;;;;;;7402131;19;20332;-72
2023/12/19 01:36:33;;;;;;;9.73;4.13;;;10.50;10.40;;;;;;7400521;19;19915;-73
2023/12/19 01:38:59;;;;;;;7.18;3.85;;;10.50;10.30;;;;;;7375987;19;19947;-72
2023/12/19 01:41:24;;;;;;;9.32;3.85;;;10.50;8.40;;;;;;7403468;19;19942;-72
2023/12/19 01:43:50;;;;;;;8.18;4.32;;;10.70;7.70;;;;;;7403706;19;19918;-73
2023/12/19 01:46:19;;;;;;;7.10;3.22;;;10.70;9.90;;;;;;7402262;19;19924;-72
2023/12/19 01:48:45;;;;;;;7.40;3.28;;;10.50;9.40;;;;;;7400846;19;19946;-73
2023/12/19 01:51:12;;;;;;;7.30;3.25;;;10.40;9.70;;;;;;7400739;19;20375;-72
2023/12/19 01:53:41;;;;;;;5.95;2.97;;;10.70;7.90;;;;;;7400115;19;19974;-72
2023/12/19 01:56:07;;;;;;;4.93;2.80;;;10.70;7.40;;;;;;7397765;19;19919;-73
2023/12/19 01:58:34;;;;;;;6.20;3.13;;;10.70;7.00;;;;;;7402599;19;19956;-72
2023/12/19 02:01:01;;;;;;;5.53;2.83;;;10.60;8.60;;;;;;7402247;19;19926;-73
2023/12/19 02:03:27;;;;;;;5.65;3.15;;;10.40;7.90;;;;;;7400769;19;19946;-73
2023/12/19 02:05:54;;;;;;;6.32;3.15;;;10.30;8.40;;;;;;7404608;19;19922;-73
2023/12/19 02:08:21;;;;;;;9.50;4.15;;;10.30;9.10;;;;;;7401888;19;19922;-72
2023/12/19 02:10:47;;;;;;;9.45;4.18;;;10.20;9.60;;;;;;7401068;19;19923;-73
2023/12/19 02:13:12;;;;;;;7.25;4.10;;;10.30;10.70;;;;;;7399239;19;19926;-74
2023/12/19 02:15:38;;;;;;;8.05;4.38;;;10.40;10.80;;;;;;7401525;19;19928;-73
2023/12/19 02:18:19;;;;;;;8.57;4.13;;;10.60;8.30;;;;;;7397692;19;19943;-73
2023/12/19 02:20:45;;;;;;;10.73;4.13;;;10.50;9.70;;;;;;7401771;19;19978;-73
2023/12/19 02:23:14;;;;;;;6.80;3.65;;;10.40;10.10;;;;;;7400614;19;19919;-73
2023/12/19 02:25:40;;;;;;;7.88;4.20;;;10.40;10.40;;;;;;7400403;19;19926;-72
2023/12/19 02:28:08;;;;;;;6.63;3.53;;;10.30;10.80;;;;;;7398211;19;19914;-71
2023/12/19 02:30:37;;;;;;;6.45;3.47;;;10.30;10.50;;;;;;7397054;19;19971;-71
2023/12/19 02:33:04;;;;;;;8.65;4.10;;;10.30;10.70;;;;;;7399245;19;19919;-73
2023/12/19 02:35:30;;;;;;;9.80;4.10;;;10.40;9.80;;;;;;7402873;19;20528;-72
2023/12/19 02:37:56;;;;;;;6.47;3.30;;;10.40;9.90;;;;;;7401561;19;20244;-73
2023/12/19 02:40:23;;;;;;;6.57;3.20;;;10.40;9.00;;;;;;7401491;19;19957;-72
2023/12/19 02:42:49;;;;;;;6.15;3.00;;;10.70;7.20;;;;;;7400302;19;19917;-71
2023/12/19 02:45:15;;;;;;;6.68;3.42;;;10.80;7.40;;;;;;7396766;19;19970;-71
2023/12/19 02:47:41;;;;;;;5.00;2.90;;;10.80;8.20;;;;;;7398080;19;19918;-72
2023/12/19 02:50:08;;;;;;;6.32;3.50;;;10.80;7.30;;;;;;7392832;19;19937;-71
2023/12/19 02:52:34;;;;;;;6.03;3.20;;;11.00;6.40;;;;;;7396254;19;19918;-72
2023/12/19 02:55:00;;;;;;;4.88;2.50;;;11.00;4.90;;;;;;7398461;19;20515;-72
2023/12/19 02:57:26;;;;;;;7.10;3.20;;;11.10;3.40;;;;;;7401335;19;19911;-72
2023/12/19 02:59:52;;;;;;;5.93;2.83;;;11.10;4.40;;;;;;7379829;19;19930;-71
2023/12/19 03:02:17;;;;;;;5.43;2.72;;;11.00;5.60;;;;;;7377224;19;19927;-72
2023/12/19 03:04:43;;;;;;;5.05;2.60;;;11.20;2.60;;;;;;7398806;19;19907;-72
2023/12/19 03:07:10;;;;;;;6.45;3.22;;;11.40;2.50;;;;;;7397532;19;19919;-72
2023/12/19 03:09:36;;;;;;;4.80;2.75;;;11.40;3.30;;;;;;7397858;19;19923;-73
2023/12/19 03:12:04;;;;;;;7.13;2.97;;;11.30;2.80;;;;;;7399423;19;19914;-72
2023/12/19 03:14:32;;;;;;;4.30;2.20;;;11.20;3.00;;;;;;7399466;19;19929;-72
2023/12/19 03:16:58;;;;;;;4.97;2.33;;;11.40;1.20;;;;;;7375232;19;19923;-73
2023/12/19 03:19:23;;;;;;;6.70;2.58;;;11.50;1.00;;;;;;7398320;19;20358;-73
2023/12/19 03:21:49;;;;;;;4.82;2.38;;;11.40;1.70;;;;;;7403766;19;19919;-72
2023/12/19 03:24:15;;;;;;;4.70;2.10;;;11.20;2.10;;;;;;7407374;19;20006;-72
2023/12/19 03:26:42;;;;;;;4.72;2.50;;;11.30;1.20;;;;;;7405911;19;19918;-72
2023/12/19 03:29:08;;;;;;;8.75;3.03;;;11.50;1.00;;;;;;7407312;19;19911;-72
2023/12/19 03:31:34;;;;;;;8.13;2.20;;;11.50;1.00;;;;;;7406804;19;19936;-72
2023/12/19 03:34:02;;;;;;;4.47;2.28;;;11.50;1.50;;;;;;7403466;19;19939;-72
2023/12/19 03:36:28;;;;;;;5.53;2.60;;;11.40;2.20;;;;;;7403110;19;19922;-73
2023/12/19 03:38:54;;;;;;;4.65;1.77;;;11.20;3.20;;;;;;7404929;19;19922;-71
2023/12/19 03:41:20;;;;;;;5.10;2.30;;;11.10;2.50;;;;;;7382819;19;19945;-73
2023/12/19 03:43:45;;;;;;;4.38;2.45;;;11.20;1.10;;;;;;7401654;19;20517;-72
2023/12/19 03:46:12;;;;;;;7.20;2.92;;;11.20;1.00;;;;;;7401790;19;19915;-72
2023/12/19 03:48:38;;;;;;;4.93;2.55;;;11.30;1.20;;;;;;7406946;19;19927;-72
2023/12/19 03:51:04;;;;;;;4.95;2.22;;;11.30;1.50;;;;;;7405118;19;19922;-72
2023/12/19 03:53:30;;;;;;;4.93;1.85;;;11.30;1.00;;;;;;7405658;19;20291;-71
2023/12/19 03:55:56;;;;;;;4.90;1.88;;;11.40;1.00;;;;;;7402998;19;20013;-72
2023/12/19 03:58:22;;;;;;;4.00;1.58;;;11.70;1.00;;;;;;7403170;19;19938;-72
2023/12/19 04:00:48;;;;;;;3.05;1.65;;;12.40;1.00;;;;;;7404460;19;19957;-72
2023/12/19 04:03:14;;;;;;;4.50;1.90;;;12.50;1.00;;;;;;7404732;19;19910;-71
2023/12/19 04:05:40;;;;;;;5.25;2.08;;;12.70;1.00;;;;;;7405986;19;19935;-72
2023/12/19 04:08:06;;;;;;;6.35;3.03;;;12.80;1.00;;;;;;7400635;19;19911;-72
2023/12/19 04:10:32;;;;;;;5.20;2.97;;;12.50;1.00;;;;;;7406227;19;20003;-72
2023/12/19 04:12:57;;;;;;;7.30;3.58;;;12.20;1.00;;;;;;7404226;19;19915;-73
2023/12/19 04:15:24;;;;;;;7.57;3.45;;;11.80;1.40;;;;;;7403133;19;20332;-71
2023/12/19 04:17:50;;;;;;;7.90;3.90;;;11.60;3.00;;;;;;7408159;19;19915;-72
2023/12/19 04:20:15;;;;;;;6.50;3.33;;;11.40;3.30;;;;;;7402695;19;19938;-71
2023/12/19 04:22:42;;;;;;;7.72;2.92;;;11.50;2.30;;;;;;7404439;19;20286;-72
2023/12/19 04:25:08;;;;;;;7.65;3.58;;;11.60;2.20;;;;;;7402776;19;20243;-71
2023/12/19 04:27:34;;;;;;;11.70;4.68;;;11.60;2.30;;;;;;7404119;19;19918;-72
2023/12/19 04:30:00;;;;;;;7.95;4.15;;;11.40;3.50;;;;;;7404664;19;20584;-72
2023/12/19 04:32:26;;;;;;;8.15;4.60;;;11.20;4.40;;;;;;7401214;19;19919;-72
2023/12/19 04:34:52;;;;;;;8.57;4.13;;;11.00;4.50;;;;;;7404538;19;19929;-70
2023/12/19 04:37:17;;;;;;;10.90;4.65;;;11.00;4.50;;;;;;7401399;19;19925;-72
2023/12/19 04:39:43;;;;;;;8.10;4.03;;;11.00;5.30;;;;;;7402542;19;19910;-72
2023/12/19 04:42:09;;;;;;;9.02;4.63;;;10.90;5.50;;;;;;7399563;19;19946;-72
2023/12/19 04:44:35;;;;;;;8.30;4.30;;;10.70;6.00;;;;;;7400046;19;19926;-72
2023/12/19 04:47:02;;;;;;;7.82;3.15;;;10.60;6.10;;;;;;7404825;19;19963;-71
2023/12/19 04:49:27;;;;;;;7.28;4.13;;;10.50;6.50;;;;;;7401038;19;19956;-72
2023/12/19 04:51:53;;;;;;;7.53;4.28;;;10.40;6.80;;;;;;7401434;19;19919;-73
2023/12/19 04:54:19;;;;;;;6.90;4.13;;;10.40;6.90;;;;;;7400016;19;19926;-72
2023/12/19 04:56:45;;;;;;;10.50;4.72;;;10.30;7.20;;;;;;7403318;19;20391;-72
2023/12/19 04:59:10;;;;;;;7.68;4.05;;;10.30;7.30;;;;;;7401524;19;19919;-71
2023/12/19 05:01:40;;;;;;;8.30;3.75;;;10.20;7.60;;;;;;7403752;19;19915;-72
2023/12/19 05:04:06;;;;;;;6.70;4.13;;;10.10;7.70;;;;;;7402150;19;20335;-72
2023/12/19 05:06:33;;;;;;;8.20;3.90;;;10.20;7.00;;;;;;7405227;19;19918;-71
2023/12/19 05:08:59;;;;;;;8.05;4.22;;;10.20;7.20;;;;;;7403549;19;19925;-72
2023/12/19 05:11:25;;;;;;;7.75;3.97;;;10.10;7.60;;;;;;7403161;19;20327;-71
2023/12/19 05:13:51;;;;;;;6.43;3.08;;;10.20;7.70;;;;;;7402323;19;19918;-73
2023/12/19 05:16:18;;;;;;;6.65;3.38;;;10.00;7.60;;;;;;7399898;19;19997;-72
2023/12/19 05:18:45;;;;;;;5.45;3.17;;;10.00;6.30;;;;;;7402331;19;20336;-74
2023/12/19 05:21:11;;;;;;;8.18;3.45;;;10.40;4.00;;;;;;7399284;19;20399;-73
2023/12/19 05:23:39;;;;;;;6.45;3.30;;;10.50;5.30;;;;;;7405320;19;19923;-72
2023/12/19 05:26:06;;;;;;;5.43;2.83;;;10.30;4.70;;;;;;7400453;19;19934;-72
2023/12/19 05:28:34;;;;;;;5.38;3.20;;;10.20;5.00;;;;;;7403973;19;19986;-72
2023/12/19 05:30:59;;;;;;;6.93;3.10;;;10.20;5.10;;;;;;7404461;19;19922;-73
2023/12/19 05:33:27;;;;;;;10.00;2.95;;;10.20;4.80;;;;;;7401789;19;19932;-73
2023/12/19 05:35:52;;;;;;;;;;;10.20;4.40;;;;;;7402974;19;20358;-73
2023/12/19 05:38:19;;;;;;;6.07;2.72;;;10.10;5.10;;;;;;7400028;19;19922;-72
2023/12/19 05:40:45;;;;;;;5.93;2.80;;;10.30;3.90;;;;;;7400004;19;20319;-73
2023/12/19 05:43:12;;;;;;;7.13;3.10;;;10.40;4.00;;;;;;7397485;19;19998;-72
2023/12/19 05:45:38;;;;;;;5.68;3.17;;;10.30;4.60;;;;;;7402788;19;19926;-72
2023/12/19 05:48:04;;;;;;;5.15;2.80;;;10.30;5.20;;;;;;7402883;19;19925;-73
2023/12/19 05:50:30;;;;;;;5.53;2.80;;;10.30;5.60;;;;;;7401989;19;19933;-73
2023/12/19 05:52:56;;;;;;;7.13;3.47;;;10.10;5.50;;;;;;7400113;19;19941;-73
2023/12/19 05:55:22;;;;;;;6.60;3.20;;;10.00;6.70;;;;;;7396659;19;19918;-73
2023/12/19 05:57:47;;;;;;;7.57;2.28;;;10.00;4.20;;;;;;7400730;19;20319;-72
2023/12/19 06:00:15;;;;;;;6.43;2.45;;;10.00;4.90;;;;;;7398589;19;19943;-72
2023/12/19 06:02:41;;;;;;;6.55;3.08;;;10.20;3.80;;;;;;7397767;19;19997;-74
2023/12/19 06:05:08;;;;;;;7.07;2.70;;;10.30;3.30;;;;;;7402178;19;19962;-72
2023/12/19 06:07:37;;;;;;;6.07;2.55;;;10.20;4.80;;;;;;7402670;19;20318;-72
2023/12/19 06:10:08;;;;;;;4.43;2.10;;;10.10;4.10;;;;;;7401200;19;20343;-72
2023/12/19 06:12:35;;;;;;;4.25;1.95;;;10.10;3.50;;;;;;7402766;19;19982;-72
2023/12/19 06:15:02;;;;;;;5.82;2.50;;;10.10;2.30;;;;;;7400796;19;19941;-73
2023/12/19 06:17:31;;;;;;;;;;;10.20;1.70;;;;;;7401373;19;20615;-72
2023/12/19 06:19:56;;;;;;;5.20;2.08;;;10.30;1.80;;;;;;7402880;19;19918;-72
2023/12/19 06:22:22;;;;;;;4.38;1.92;;;10.30;1.50;;;;;;7401077;19;19934;-72
2023/12/19 06:24:50;;;;;;;5.82;2.10;;;10.30;2.20;;;;;;7401498;19;19930;-72
2023/12/19 06:27:16;;;;;;;4.63;2.42;;;10.40;2.60;;;;;;7400147;19;19919;-72
2023/12/19 06:29:45;;;;;;;5.15;2.17;;;10.40;2.70;;;;;;7402985;19;19931;-71
2023/12/19 06:32:12;;;;;;;4.50;1.95;;;10.50;2.10;;;;;;7398568;19;19915;-71
2023/12/19 06:34:38;;;;;;;4.45;1.90;;;10.50;1.70;;;;;;7398922;19;20298;-72
2023/12/19 06:37:04;;;;;;;4.53;2.17;;;10.60;2.20;;;;;;7398576;19;19947;-72
2023/12/19 06:39:30;;;;;;;5.05;2.63;;;10.40;2.60;;;;;;7401563;19;19939;-72
2023/12/19 06:41:55;;;;;;;5.72;2.60;;;10.40;2.90;;;;;;7401550;19;19927;-73
2023/12/19 06:44:22;;;;;;;4.43;2.38;;;10.50;3.40;;;;;;7400051;19;19918;-73
2023/12/19 06:46:50;;;;;;;5.57;2.45;;;10.50;3.70;;;;;;7401090;19;19922;-72
2023/12/19 06:49:22;;;;;;;4.95;2.17;;;10.40;3.40;;;;;;7399110;19;19922;-73
2023/12/19 06:51:48;;;;;;;8.50;2.42;;;10.40;3.80;;;;;;7397612;19;19918;-73
2023/12/19 06:54:14;;;;;;;3.75;2.03;;;10.30;4.10;;;;;;7403330;19;19922;-74
2023/12/19 06:56:41;;;;;;;6.15;2.30;;;10.30;4.60;;;;;;7406920;19;19914;-73
2023/12/19 06:59:07;;;;;;;6.28;2.63;;;10.30;4.30;;;;;;7402391;19;20342;-73
2023/12/19 07:01:33;;;;;;;5.82;1.90;;;10.30;4.50;;;;;;7404930;19;19907;-72
2023/12/19 07:03:58;;;;;;;4.38;2.00;;;10.20;4.80;;;;;;7404288;19;19926;-73
2023/12/19 07:06:25;;;;;;;4.68;2.00;;;10.30;4.90;;;;;;7405447;19;19982;-72
2023/12/19 07:08:52;;;;;;;6.55;2.97;;;10.20;4.90;;;;;;7405621;19;19974;-72
2023/12/19 07:11:21;;;;;;;5.80;2.97;;;10.20;5.10;;;;;;7402349;19;19957;-73
2023/12/19 07:13:46;;;;;;;4.38;2.00;;;10.20;5.10;;;;;;7403969;19;19914;-73
2023/12/19 07:16:17;;;;;;;5.65;1.85;;;10.30;5.10;;;;;;7404299;19;19933;-72
2023/12/19 07:18:44;;;;;;;4.57;1.92;;;10.30;5.20;;;;;;7404560;19;19925;-73
2023/12/19 07:21:23;;;;;;;4.85;2.33;;;10.50;4.40;;;;;;7404094;19;19930;-72
2023/12/19 07:23:50;;;;;;;4.75;2.33;;;10.40;4.30;;;;;;7404660;19;19919;-73
2023/12/19 07:26:34;;;;;;;8.38;2.92;;;10.40;4.70;;;;;;7400052;19;20471;-73
2023/12/19 07:29:02;;;;;;;5.63;2.28;;;10.70;5.70;;;;;;7388036;19;19919;-73
2023/12/19 07:31:31;;;;;;;5.75;2.40;;;10.80;4.00;;;;;;7380986;19;19935;-73
2023/12/19 07:33:59;;;;;;;6.22;2.20;;;10.80;3.40;;;;;;7383413;19;19919;-74
2023/12/19 07:36:26;;;;;;;4.90;2.25;;;10.80;3.90;;;;;;7401810;19;19930;-73
2023/12/19 07:38:52;;;;;;;8.35;3.22;;;10.90;4.00;;;;;;7402089;19;19926;-73
2023/12/19 07:41:19;;;;;;;7.60;2.63;;;10.80;4.10;;;;;;7400347;19;19923;-73
2023/12/19 07:43:45;;;;;;;11.13;3.92;;;10.80;4.20;;;;;;7404340;19;19913;-73
2023/12/19 07:46:11;;;;;;;10.45;3.10;;;10.70;5.30;;;;;;7400086;19;20601;-73
2023/12/19 07:48:37;;;;;;;10.77;3.08;;;10.70;6.10;;;;;;7401159;19;20284;-73
2023/12/19 07:51:03;;;;;;;11.18;3.45;;;10.60;5.80;;;;;;7399813;19;19922;-72
2023/12/19 07:53:32;;;;;;;10.95;3.70;;;10.60;5.80;;;;;;7389050;19;20761;-74
2023/12/19 07:56:00;;;;;;;6.55;2.75;;;10.60;5.60;;;;;;7400239;19;19946;-74
2023/12/19 07:58:26;;;;;;;10.18;3.22;;;10.60;5.30;;;;;;7389529;19;19937;-73
2023/12/19 08:00:52;;;;;;;6.97;2.30;;;10.70;5.70;;;;;;7378044;19;19910;-73
2023/12/19 08:03:18;;;;;;;6.13;2.75;;;10.80;5.50;;;;;;7401004;19;19967;-75
2023/12/19 08:05:50;;;;;;;12.88;4.18;;;10.90;4.70;;;;;;7403732;19;19910;-73
2023/12/19 08:08:17;;;;;;;14.48;3.75;;;10.90;5.70;;;;;;7394792;19;19922;-73
2023/12/19 08:10:45;;;;;;;10.60;3.72;;;10.90;6.20;;;;;;7400840;19;19919;-73
2023/12/19 08:13:11;;;;;;;14.02;5.00;;;11.40;5.70;;;;;;7402423;19;19917;-74
2023/12/19 08:15:37;;;;;;;7.72;3.28;;;13.40;3.20;;;;;;7390356;19;20296;-74
2023/12/19 08:18:03;;;;;;;9.07;4.82;;;14.90;1.00;;;;;;7379652;19;19918;-73
2023/12/19 08:20:29;;;;;;;16.58;6.00;;;16.00;1.00;;;;;;7394973;19;19919;-73
2023/12/19 08:22:56;;;;;;;8.40;5.32;;;17.20;1.00;;;;;;7392585;19;19923;-73
2023/12/19 08:25:21;;;;;;;;;;;17.90;1.00;;;;;;7391317;19;24275;-75
2023/12/19 08:30:08;;;;;;;16.75;4.88;;;19.10;1.00;;;;;;7425298;19;20081;-74
2023/12/19 08:32:33;;;;;;;11.63;4.40;;;19.80;1.00;;;;;;7430503;19;19927;-73
2023/12/19 08:34:59;;;;;;;13.73;5.63;;;20.30;1.00;;;;;;7429782;19;19930;-73
2023/12/19 08:37:25;;;;;;;42.72;13.18;;;20.80;1.00;;;;;;7431633;19;19926;-73
2023/12/19 08:39:56;;;;;;;32.65;10.05;;;20.40;1.00;;;;;;7437006;19;19926;-73
2023/12/19 08:42:22;;;;;;;33.20;8.25;;;20.00;1.00;;;;;;7426738;19;20804;-73
2023/12/19 08:44:50;;;;;;;18.50;5.70;;;20.20;1.00;;;;;;7434611;19;19915;-73
2023/12/19 08:47:17;;;;;;;13.27;4.53;;;19.40;1.00;;;;;;7425617;19;19923;-74
2023/12/19 08:49:43;;;;;;;14.07;5.28;;;18.10;1.00;;;;;;7423522;19;19915;-73
2023/12/19 10:01:40;;;;;;;15.00;6.95;;;18.80;1.00;;;;;;7250528;19;3443950;-71
2023/12/19 10:04:13;;;;;;;15.60;7.70;;;19.50;1.00;;;;;;7420463;19;19915;-71
2023/12/19 10:07:00;;;;;;;16.33;8.18;;;19.80;1.00;;;;;;7422875;19;19929;-71
2023/12/19 10:09:26;;;;;;;15.95;7.40;;;19.70;1.00;;;;;;7413967;19;19922;-72
2023/12/19 10:12:06;;;;;;;15.95;8.27;;;19.80;1.00;;;;;;7397777;19;19914;-70
2023/12/19 10:14:33;;;;;;;15.65;7.68;;;20.10;1.00;;;;;;7421149;19;19915;-72
2023/12/19 10:17:00;;;;;;;14.65;7.53;;;20.30;1.00;;;;;;7418132;19;20323;-72
2023/12/19 10:19:30;;;;;;;13.38;6.93;;;20.50;1.00;;;;;;7414853;19;19922;-71
2023/12/19 10:22:07;;;;;;;12.00;6.15;;;20.60;1.00;;;;;;7423091;19;19923;-71
2023/12/19 10:24:34;;;;;;;17.92;6.82;;;20.30;1.00;;;;;;7423354;19;19929;-72
2023/12/19 10:27:01;;;;;;;19.77;5.82;;;20.50;1.00;;;;;;7422246;19;19934;-71
2023/12/19 10:29:28;;;;;;;14.15;6.78;;;20.70;1.00;;;;;;7426990;19;20460;-72
2023/12/19 10:31:54;;;;;;;16.33;6.90;;;20.70;1.00;;;;;;7435314;19;20832;-72
2023/12/19 10:34:22;;;;;;;18.85;7.07;;;20.80;1.00;;;;;;7431139;19;19927;-72
2023/12/19 10:36:49;;;;;;;16.70;8.32;;;20.00;1.00;;;;;;7432658;19;19922;-71
2023/12/19 10:39:18;;;;;;;17.48;7.00;;;20.40;1.00;;;;;;7423843;19;19918;-71
2023/12/19 10:41:44;;;;;;;17.98;7.65;;;19.70;1.00;;;;;;7421649;19;19922;-71
2023/12/19 10:44:12;;;;;;;16.00;8.00;;;20.10;1.00;;;;;;7423168;19;19978;-72
2023/12/19 10:46:38;;;;;;;15.27;6.78;;;20.50;1.00;;;;;;7412537;19;19937;-71
2023/12/19 10:49:06;;;;;;;19.70;10.73;;;21.20;1.00;;;;;;7430605;19;20255;-72
2023/12/19 10:51:47;;;;;;;14.82;7.47;;;21.60;1.00;;;;;;7423113;19;19931;-72
2023/12/19 10:54:15;;;;;;;17.02;8.25;;;21.80;1.00;;;;;;7419241;19;19918;-72
2023/12/19 10:57:04;;;;;;;19.73;8.85;;;22.40;1.00;;;;;;7428090;19;19954;-71
2023/12/19 10:59:36;;;;;;;19.27;9.15;;;23.10;1.00;;;;;;7423397;19;20342;-71
2023/12/19 11:02:21;;;;;;;22.45;9.50;;;23.30;1.00;;;;;;7381768;19;19990;-71
2023/12/19 11:04:54;;;;;;;17.45;9.73;;;23.80;1.00;;;;;;7386885;19;19914;-71
2023/12/19 11:07:22;;;;;;;21.42;10.00;;;24.10;1.00;;;;;;7394490;19;19941;-71
2023/12/19 11:10:00;;;;;;;22.08;9.95;;;24.30;1.00;;;;;;7398841;19;19936;-73
2023/12/19 11:12:26;;;;;;;21.38;10.63;;;24.40;1.00;;;;;;7394086;19;19937;-72
2023/12/19 11:14:52;;;;;;;24.08;9.05;;;24.40;1.00;;;;;;7393143;19;19930;-72
2023/12/19 11:17:45;;;;;;;11.07;6.43;;;24.20;1.00;;;;;;7401498;19;19918;-72
2023/12/19 11:20:20;;;;;;;15.18;6.47;;;24.30;1.00;;;;;;7399159;19;19982;-72
2023/12/19 11:23:05;;;;;;;12.57;7.60;;;24.70;1.00;;;;;;7393599;19;20273;-72
2023/12/19 11:25:38;;;;;;;12.90;7.28;;;24.70;1.00;;;;;;7400386;19;19939;-72
2023/12/19 11:28:05;;;;;;;15.02;7.68;;;24.90;1.00;;;;;;7401079;19;19934;-72
2023/12/19 11:30:40;;;;;;;14.90;7.65;;;25.10;1.00;;;;;;7397743;19;19915;-72
2023/12/19 11:33:07;;;;;;;20.05;8.35;;;25.60;1.00;;;;;;7392519;19;20760;-72
2023/12/19 11:35:34;;;;;;;19.60;9.35;;;25.70;1.00;;;;;;7398163;19;19918;-72
2023/12/19 11:38:15;;;;;;;;;;;26.10;1.00;;;;;;7395909;19;20423;-71
2023/12/19 11:40:51;;;;;;;20.98;9.35;;;26.60;1.00;;;;;;7393085;19;19911;-71
2023/12/19 11:43:35;;;;;;;19.35;9.75;;;26.70;1.00;;;;;;7394986;19;19914;-72
2023/12/19 11:46:04;;;;;;;22.73;10.40;;;26.90;1.00;;;;;;7392579;19;19922;-72
2023/12/19 11:48:37;;;;;;;25.02;9.30;;;26.90;1.00;;;;;;7400856;19;19922;-72
2023/12/19 11:51:05;;;;;;;16.10;8.50;;;26.90;1.00;;;;;;7400998;19;20002;-72
2023/12/19 11:53:31;;;;;;;18.55;9.10;;;26.90;1.00;;;;;;7398288;19;19915;-72
2023/12/19 11:56:08;;;;;;;20.73;8.60;;;26.90;1.00;;;;;;7378759;19;20539;-72
2023/12/19 11:58:34;;;;;;;18.20;9.93;;;26.70;1.00;;;;;;7387092;19;19933;-72
2023/12/19 12:01:01;;;;;;;19.35;8.80;;;26.80;1.00;;;;;;7392418;19;19929;-72
2023/12/19 12:03:27;;;;;;;22.08;11.07;;;27.00;1.00;;;;;;7393162;19;20426;-71
2023/12/19 12:05:53;;;;;;;;;;;27.00;1.00;;;;;;7384824;19;19927;-72
2023/12/19 12:08:19;;;;;;;17.73;12.65;;;27.00;1.00;;;;;;7394342;19;20241;-69
2023/12/19 12:10:58;;;;;;;;;;;27.00;1.00;;;;;;7397871;19;19922;-69
2023/12/19 12:13:25;;;;;;;24.45;10.45;;;27.50;1.00;;;;;;7392041;19;19914;-68
2023/12/19 12:15:55;;;;;;;25.98;9.93;;;27.90;1.00;;;;;;7397031;19;20002;-69
2023/12/19 12:18:21;;;;;;;18.40;9.90;;;28.20;1.00;;;;;;7400853;19;19925;-69
2023/12/19 12:20:47;;;;;;;21.65;9.60;;;28.40;1.00;;;;;;7393146;19;19915;-70
2023/12/19 12:23:16;;;;;;;;;;;28.90;1.00;;;;;;7396295;19;19919;-71
2023/12/19 12:25:42;;;;;;;5.32;3.22;;;28.90;1.00;;;;;;7382713;19;19914;-73
2023/12/19 12:28:08;;;;;;;7.90;4.13;;;27.20;1.00;;;;;;7385746;19;19922;-71
2023/12/19 12:30:35;;;;;;;6.78;2.85;;;28.00;1.00;;;;;;7398871;19;19915;-74
2023/12/19 12:33:03;;;;;;;7.60;3.72;;;27.10;1.00;;;;;;7394164;19;19922;-73
2023/12/19 12:35:35;;;;;;;9.63;3.92;;;26.70;1.00;;;;;;7399763;19;19918;-71
2023/12/19 12:38:11;;;;;;;4.93;2.88;;;24.50;1.00;;;;;;7386705;19;19998;-73
2023/12/19 12:40:37;;;;;;;11.20;4.07;;;25.10;1.00;;;;;;7366972;19;19914;-73
2023/12/19 12:43:21;;;;;;;;;;;24.00;1.00;;;;;;7392133;19;19974;-73
2023/12/19 12:45:48;;;;;;;7.40;4.15;;;24.60;1.00;;;;;;7398363;19;19919;-72
2023/12/19 12:48:14;;;;;;;8.32;3.67;;;24.70;1.00;;;;;;7400066;19;20282;-72
2023/12/19 12:50:40;;;;;;;6.25;3.13;;;24.90;1.00;;;;;;7394328;19;19922;-72
2023/12/19 12:53:12;;;;;;;9.40;4.38;;;25.00;1.00;;;;;;7396908;19;19926;-72
2023/12/19 12:55:38;;;;;;;7.60;3.13;;;25.30;1.00;;;;;;7397984;19;20026;-73
2023/12/19 12:58:04;;;;;;;5.30;3.03;;;25.20;1.00;;;;;;7393643;19;19934;-72
2023/12/19 13:00:30;;;;;;;5.22;2.72;;;24.00;1.00;;;;;;7393112;19;19928;-73
2023/12/19 13:02:56;;;;;;;7.68;3.45;;;24.60;1.00;;;;;;7396778;19;20355;-73
2023/12/19 13:05:21;;;;;;;7.43;2.83;;;24.40;1.00;;;;;;7398569;19;21709;-72
2023/12/19 13:07:47;;;;;;;6.90;2.72;;;24.30;1.00;;;;;;7399928;19;19921;-74
2023/12/19 13:10:13;;;;;;;6.38;3.10;;;24.10;1.00;;;;;;7396914;19;20062;-72
2023/12/19 13:12:42;;;;;;;6.88;3.30;;;24.90;1.00;;;;;;7396669;19;19919;-73
2023/12/19 13:15:08;;;;;;;4.53;2.55;;;24.70;1.00;;;;;;7393766;19;19926;-72
2023/12/19 13:17:33;;;;;;;;;;;24.50;1.00;;;;;;7409071;19;19921;-72
2023/12/19 13:19:59;;;;;;;7.20;3.30;;;25.00;1.00;;;;;;7378341;19;19911;-71
2023/12/19 13:22:25;;;;;;;7.25;3.00;;;25.30;1.00;;;;;;7401604;19;19919;-73
2023/12/19 13:24:51;;;;;;;5.53;2.22;;;24.10;1.00;;;;;;7400950;19;19927;-71
2023/12/19 13:27:17;;;;;;;6.03;2.83;;;24.50;1.00;;;;;;7391895;19;19922;-72
2023/12/19 13:29:43;;;;;;;6.70;2.83;;;24.30;1.00;;;;;;7395407;19;19940;-73
2023/12/19 13:32:10;;;;;;;7.38;2.88;;;24.50;1.00;;;;;;7395341;19;19939;-74
2023/12/19 13:34:36;;;;;;;8.90;2.65;;;24.70;1.00;;;;;;7397154;19;20333;-72
2023/12/19 13:37:02;;;;;;;4.35;2.58;;;25.30;1.00;;;;;;7400142;19;19930;-73
2023/12/19 13:39:31;;;;;;;8.18;2.33;;;25.30;1.00;;;;;;7396118;19;20375;-73
2023/12/19 13:42:00;;;;;;;8.05;4.65;;;25.40;1.00;;;;;;7395679;19;20253;-72
2023/12/19 13:44:26;;;;;;;5.00;4.00;;;24.80;1.00;;;;;;7393249;19;20287;-72
2023/12/19 13:46:51;;;;;;;4.35;2.53;;;25.30;1.00;;;;;;7390268;19;19922;-73
2023/12/19 13:49:18;;;;;;;8.45;2.45;;;25.00;1.00;;;;;;7383872;19;19919;-72
2023/12/19 13:51:44;;;;;;;7.18;2.90;;;24.40;1.00;;;;;;7398728;19;19921;-72
2023/12/19 13:54:10;;;;;;;6.30;3.15;;;25.00;1.00;;;;;;7390132;19;20033;-73
2023/12/19 13:56:35;;;;;;;7.72;2.97;;;24.50;1.00;;;;;;7391518;19;20342;-72
2023/12/19 13:59:03;;;;;;;5.80;3.13;;;24.10;1.00;;;;;;7391981;19;20278;-73
2023/12/19 14:01:29;;;;;;;6.28;2.88;;;24.60;1.00;;;;;;7394846;19;19929;-71
2023/12/19 14:03:55;;;;;;;4.20;2.60;;;24.50;1.00;;;;;;7366507;19;19915;-73
2023/12/19 14:06:21;;;;;;;6.57;3.60;;;24.70;1.00;;;;;;7392958;19;19915;-72
2023/12/19 14:08:47;;;;;;;5.43;3.08;;;24.70;1.00;;;;;;7389885;19;19919;-73